MET'MAP v2.0
soon released !

Expected late october,
this new version will be
more efficient, smarter,
and hosted on a brand new
server x3 powerfull...
...and still free !


Not compatible ?
Try the mobile version !

LOG IN : | Subscribe | Disclaimer | Who is Orbifly ? |
ICAO code :

TAF - LIRI Salerno Pontecagnano Airport - 28 Sep 2020 12:58 UTC - Data Source NOAA   


- Airport Elevation : 119 ft
- IATA code : QSR
- No reported NOTAMs.


LIRI - Salerno Pontecagnano Airport

Latest METAR recorded : 2015/08/11 07:50 LIRI 110750Z 00000KT 4000 -TSRA FEW010CB SCT020 BKN040 21/20 Q1013
NO TAF


MET'MAP, your aeronautical weather chart ! - Copyright ORBIFLY December 2007

Programming & Development : Alexandra Zaïnal
Co-Developer : Marc-Olivier Méhu
Technical & hardware support : Manuel Goepfert
Concept & Financing : Baudouin d'Aumeries